Time;durP1;ratioP1;P1;durP2;ratioP2;P2;SDS_P1;SDS_P2;PMS_P1;PMS_P2;Temp;Humidity;BMP_temperature;BMP_pressure;BME280_temperature;BME280_humidity;BME280_pressure;Samples;Min_cycle;Max_cycle;Signal;HPM_P1;HPM_P2
2022/06/10 00:00:51;;;;;;;;;2.00;2.00;;;;;18.42;57.33;101314.69;5032882;28;45430;-78
2022/06/10 00:03:19;;;;;;;;;5.50;5.00;;;;;18.38;57.41;101316.59;5014208;28;46161;-77
2022/06/10 00:05:48;;;;;;;;;2.00;1.50;;;;;18.37;57.36;101311.31;5018274;28;45438;-79
2022/06/10 00:08:21;;;;;;;;;2.00;2.00;;;;;18.36;57.54;101314.94;5019313;28;45453;-78
2022/06/10 00:10:51;;;;;;;;;4.75;3.50;;;;;18.31;57.76;101311.56;5016343;28;45664;-77
2022/06/10 00:13:18;;;;;;;;;6.25;2.00;;;;;18.27;58.15;101316.19;5018689;28;45859;-77
2022/06/10 00:15:44;;;;;;;;;9.00;2.75;;;;;18.25;57.95;101305.56;5031190;28;45527;-78
2022/06/10 00:18:10;;;;;;;;;6.00;4.75;;;;;18.21;58.19;101306.59;5008797;28;45421;-77
2022/06/10 00:20:36;;;;;;;;;1.25;1.25;;;;;18.20;58.00;101310.19;5010107;28;45539;-79
2022/06/10 00:23:02;;;;;;;;;2.50;2.50;;;;;18.17;58.25;101313.00;5012189;28;46255;-81
2022/06/10 00:25:28;;;;;;;;;2.00;2.00;;;;;18.18;58.31;101317.41;5026261;28;45465;-82
2022/06/10 00:27:54;;;;;;;;;2.75;1.75;;;;;18.13;58.32;101307.81;5017753;28;45545;-80
2022/06/10 00:30:26;;;;;;;;;6.25;2.50;;;;;18.10;58.56;101308.84;5021746;28;45355;-82
2022/06/10 00:32:52;;;;;;;;;3.00;2.75;;;;;18.11;58.48;101311.47;5020055;28;45522;-81
2022/06/10 00:35:18;;;;;;;;;7.00;5.00;;;;;18.10;58.46;101308.84;5027509;28;45465;-80
2022/06/10 00:37:43;;;;;;;;;3.75;3.00;;;;;18.08;58.63;101306.22;5019683;28;45516;-81
2022/06/10 00:40:17;;;;;;;;;2.50;1.50;;;;;18.08;58.63;101316.03;5030151;28;45573;-80
2022/06/10 00:42:43;;;;;;;;;2.25;1.25;;;;;18.05;58.68;101310.81;5019714;28;45473;-80
2022/06/10 00:45:47;;;;;;;;;3.00;3.00;;;;;18.05;58.81;101316.16;5014584;28;45419;-80
2022/06/10 00:48:17;;;;;;;;;3.50;2.50;;;;;18.03;58.69;101312.69;5003812;28;45745;-80
2022/06/10 00:50:43;;;;;;;;;6.00;2.75;;;;;17.98;58.82;101310.19;5010559;28;45401;-81
2022/06/10 00:53:12;;;;;;;;;2.00;2.00;;;;;17.98;58.78;101299.50;5016962;28;45351;-82
2022/06/10 00:55:39;;;;;;;;;5.50;1.50;;;;;17.96;58.79;101300.47;5024526;28;45471;-82
2022/06/10 00:58:22;;;;;;;;;2.25;2.00;;;;;17.93;58.77;101297.00;5015305;28;45416;-81
2022/06/10 01:00:47;;;;;;;;;2.00;2.00;;;;;17.92;58.79;101289.06;5024522;28;45402;-81
2022/06/10 01:03:13;;;;;;;;;5.00;2.00;;;;;17.93;58.99;101297.00;5031101;28;45360;-81
2022/06/10 01:05:38;;;;;;;;;4.50;2.25;;;;;17.87;59.29;101288.31;5023653;28;45355;-81
2022/06/10 01:08:09;;;;;;;;;2.75;2.00;;;;;17.88;59.17;101298.94;5025961;28;45434;-81
2022/06/10 01:10:55;;;;;;;;;3.00;3.00;;;;;17.84;59.51;101292.00;5021792;28;45569;-81
2022/06/10 01:13:54;;;;;;;;;1.75;1.75;;;;;17.84;58.98;101291.09;5032254;28;46436;-83
2022/06/10 01:16:33;;;;;;;;;2.00;1.00;;;;;17.82;59.34;101301.00;5018775;28;45505;-80
2022/06/10 01:19:46;;;;;;;;;2.75;2.00;;;;;17.79;59.44;101293.94;5022012;28;45513;-81
2022/06/10 01:22:43;;;;;;;;;2.25;1.50;;;;;17.76;59.42;101289.63;5025958;28;45455;-81
2022/06/10 01:25:33;;;;;;;;;2.00;2.00;;;;;17.76;59.57;101294.97;5022067;28;45685;-79
2022/06/10 01:28:20;;;;;;;;;2.75;2.75;;;;;17.74;59.69;101290.59;5016669;28;45431;-81
2022/06/10 01:30:49;;;;;;;;;1.00;1.00;;;;;17.66;59.72;101290.91;5020795;28;45415;-80
2022/06/10 01:33:30;;;;;;;;;3.50;2.25;;;;;17.65;60.14;101293.63;5031186;28;45525;-80
2022/06/10 01:35:55;;;;;;;;;1.75;1.75;;;;;17.62;60.14;101285.72;5029149;28;45451;-80
2022/06/10 01:38:40;;;;;;;;;5.00;2.50;;;;;17.59;60.28;101292.91;5026339;28;45581;-81
2022/06/10 01:41:42;;;;;;;;;1.00;1.00;;;;;17.57;60.06;101292.13;5036192;28;45484;-81
2022/06/10 01:44:32;;;;;;;;;2.00;2.00;;;;;17.51;60.62;101289.69;4983532;28;45474;-81
2022/06/10 01:47:03;;;;;;;;;3.00;3.00;;;;;17.48;60.59;101289.78;4958041;28;47269;-79
2022/06/10 01:49:38;;;;;;;;;3.00;3.00;;;;;17.46;60.27;101297.00;4949056;28;45581;-81
2022/06/10 01:52:32;;;;;;;;;4.75;4.50;;;;;17.45;60.86;101300.59;4989134;28;45457;-81
2022/06/10 01:55:19;;;;;;;;;1.00;1.00;;;;;17.45;60.66;101303.28;4985041;28;45610;-81
2022/06/10 01:57:55;;;;;;;;;2.00;2.00;;;;;17.40;60.79;101302.56;4989713;28;45530;-81
2022/06/10 02:00:26;;;;;;;;;4.50;1.75;;;;;17.36;60.86;101295.59;4983152;28;45473;-82
2022/06/10 02:03:11;;;;;;;;;3.00;1.50;;;;;17.37;60.85;101300.03;4990600;28;45408;-81
2022/06/10 02:05:42;;;;;;;;;2.75;2.50;;;;;17.36;60.98;101301.81;4988570;28;45604;-81
2022/06/10 02:08:14;;;;;;;;;1.50;0.00;;;;;17.37;61.03;101297.34;4993918;28;45565;-81
2022/06/10 02:11:08;;;;;;;;;3.00;3.00;;;;;17.36;60.97;101306.28;4991599;28;45550;-80
2022/06/10 02:13:52;;;;;;;;;3.00;3.00;;;;;17.36;61.06;101307.16;4990690;28;45524;-82
2022/06/10 02:16:22;;;;;;;;;0.00;0.00;;;;;17.36;60.82;101311.63;4961702;28;45516;-81
2022/06/10 02:19:14;;;;;;;;;2.50;2.50;;;;;17.34;61.00;101297.44;4980377;28;45420;-81
2022/06/10 02:21:43;;;;;;;;;3.00;3.00;;;;;17.32;61.03;101305.50;5006953;28;45659;-81
2022/06/10 02:24:30;;;;;;;;;0.00;0.00;;;;;17.30;60.97;101290.47;5018238;28;45857;-81
2022/06/10 02:27:02;;;;;;;;;2.00;2.00;;;;;17.29;60.94;101288.72;5019371;28;45429;-81
2022/06/10 02:29:36;;;;;;;;;2.50;2.50;;;;;17.29;60.93;101297.59;5029835;28;45441;-81
2022/06/10 02:32:02;;;;;;;;;1.75;1.75;;;;;17.26;60.67;101283.50;5011379;28;45436;-81
2022/06/10 02:34:28;;;;;;;;;5.00;3.00;;;;;17.27;60.66;101294.13;5023025;28;45524;-82
2022/06/10 02:37:17;;;;;;;;;1.50;1.50;;;;;17.21;60.73;101291.69;5025225;28;45454;-81
2022/06/10 02:40:24;;;;;;;;;1.75;1.75;;;;;17.21;61.06;101303.22;5035252;28;45549;-79
2022/06/10 02:43:08;;;;;;;;;1.75;1.75;;;;;17.19;61.11;101305.09;4983138;28;45982;-81
2022/06/10 02:45:52;;;;;;;;;2.00;2.00;;;;;17.19;61.03;101314.91;5017746;28;45478;-81
2022/06/10 02:48:40;;;;;;;;;2.25;0.75;;;;;17.17;61.18;101304.28;5016597;28;45342;-81
2022/06/10 02:51:05;;;;;;;;;3.00;3.00;;;;;17.15;60.97;101307.94;5026340;28;45422;-82
2022/06/10 02:53:31;;;;;;;;;5.00;5.00;;;;;17.12;61.21;101308.91;5022942;28;45526;-80
2022/06/10 02:55:56;;;;;;;;;3.00;1.50;;;;;17.09;61.39;101311.69;5016733;28;45423;-81
2022/06/10 03:01:13;;;;;;;;;5.25;3.00;;;;;17.03;61.67;101325.25;5013884;28;45823;-81
2022/06/10 03:04:11;;;;;;;;;3.00;3.00;;;;;16.99;61.48;101320.94;5025805;28;45544;-81
2022/06/10 03:06:48;;;;;;;;;2.00;2.00;;;;;16.97;61.74;101317.47;5014852;28;45419;-81
2022/06/10 03:09:22;;;;;;;;;1.50;1.50;;;;;16.95;62.00;101324.66;5015083;28;45424;-81
2022/06/10 03:12:22;;;;;;;;;2.00;2.00;;;;;16.94;61.83;101325.56;5025038;28;45431;-81
2022/06/10 03:15:22;;;;;;;;;3.00;3.00;;;;;16.91;61.85;101320.34;5010308;28;45456;-82
2022/06/10 03:18:18;;;;;;;;;5.50;2.25;;;;;16.89;62.29;101319.53;5016534;28;45459;-81
2022/06/10 03:21:10;;;;;;;;;1.00;1.00;;;;;16.85;62.10;101327.63;5024983;28;45597;-81
2022/06/10 03:23:50;;;;;;;;;2.75;2.00;;;;;16.82;62.13;101325.06;5003748;28;45498;-81
2022/06/10 03:26:40;;;;;;;;;5.00;3.25;;;;;16.82;62.19;101330.41;5029397;28;45300;-81
2022/06/10 03:29:16;;;;;;;;;1.25;1.25;;;;;16.79;62.26;101333.19;5042340;28;45411;-81
2022/06/10 03:31:50;;;;;;;;;1.00;1.00;;;;;16.76;62.15;101329.72;5024671;28;45508;-80
2022/06/10 03:34:30;;;;;;;;;1.00;1.00;;;;;16.74;62.40;101340.44;5025192;28;45441;-80
2022/06/10 03:36:58;;;;;;;;;4.25;2.00;;;;;16.73;62.51;101338.69;5014425;28;45480;-80
2022/06/10 03:39:26;;;;;;;;;2.25;2.25;;;;;16.70;62.50;101334.34;5019456;28;45450;-82
2022/06/10 03:42:15;;;;;;;;;3.75;2.50;;;;;16.68;62.63;101324.63;5015670;28;45438;-81
2022/06/10 03:44:42;;;;;;;;;2.00;1.25;;;;;16.68;62.69;101333.50;5013452;28;46227;-82
2022/06/10 03:47:14;;;;;;;;;4.00;3.00;;;;;16.67;62.94;101333.56;5028610;28;45573;-82
2022/06/10 03:49:46;;;;;;;;;3.25;3.25;;;;;16.65;62.77;101330.94;5023198;28;45383;-81
2022/06/10 03:52:20;;;;;;;;;2.00;2.00;;;;;16.63;62.98;101324.78;5032541;28;45607;-83
2022/06/10 03:54:45;;;;;;;;;1.50;1.50;;;;;16.63;63.26;101327.47;5020697;28;45370;-82
2022/06/10 03:57:10;;;;;;;;;2.00;2.00;;;;;16.62;63.00;101330.19;5036332;28;45413;-82
2022/06/10 03:59:36;;;;;;;;;2.00;2.00;;;;;16.61;63.03;101323.09;5031082;28;45379;-83
2022/06/10 04:02:04;;;;;;;;;1.25;1.25;;;;;16.56;63.14;101328.59;5031457;28;45561;-83
2022/06/10 04:04:30;;;;;;;;;2.00;2.00;;;;;16.61;63.53;101333.75;5032315;28;46213;-83
2022/06/10 04:06:55;;;;;;;;;1.75;1.75;;;;;16.61;63.15;101339.09;5014886;28;45411;-83
2022/06/10 04:09:20;;;;;;;;;2.00;2.00;;;;;16.63;63.27;101331.94;5023430;28;45470;-82
2022/06/10 04:11:46;;;;;;;;;1.50;1.00;;;;;16.65;63.39;101336.28;5016590;28;45297;-84
2022/06/10 04:14:11;;;;;;;;;4.50;1.75;;;;;16.68;63.21;101336.19;5030111;28;46040;-82
2022/06/10 04:16:37;;;;;;;;;2.00;2.00;;;;;16.80;62.83;101345.56;5028970;28;45432;-82
2022/06/10 04:19:02;;;;;;;;;2.00;2.00;;;;;17.14;62.67;101349.81;5035305;28;45392;-82
2022/06/10 04:21:28;;;;;;;;;2.50;1.25;;;;;17.52;61.43;101344.88;5007064;28;45565;-83
2022/06/10 04:23:53;;;;;;;;;3.00;1.50;;;;;17.90;60.71;101350.59;5018311;28;45453;-82
2022/06/10 04:26:19;;;;;;;;;1.75;1.00;;;;;18.34;59.44;101351.59;5023116;28;45662;-82
2022/06/10 04:28:44;;;;;;;;;2.00;1.00;;;;;18.65;58.18;101344.03;5025065;28;46148;-83
2022/06/10 04:31:09;;;;;;;;;1.00;1.00;;;;;19.08;57.37;101345.88;5009849;28;45585;-82
2022/06/10 04:33:35;;;;;;;;;3.50;2.00;;;;;19.34;56.83;101344.69;5013934;28;45981;-84
2022/06/10 04:36:01;;;;;;;;;1.25;1.25;;;;;19.78;55.14;101351.69;5019508;28;45712;-83
2022/06/10 04:38:27;;;;;;;;;1.00;1.00;;;;;20.24;54.51;101346.84;5026123;28;45397;-82
2022/06/10 04:40:53;;;;;;;;;1.25;1.00;;;;;20.73;53.12;101339.06;5031834;28;45367;-83
2022/06/10 04:43:19;;;;;;;;;2.25;2.25;;;;;21.25;51.76;101345.38;5015968;28;46331;-82
2022/06/10 04:45:49;;;;;;;;;2.00;2.00;;;;;21.68;50.29;101344.94;5028369;28;45349;-85
2022/06/10 04:48:14;;;;;;;;;2.75;1.75;;;;;22.09;49.27;101344.47;5028938;28;45464;-83
2022/06/10 04:50:41;;;;;;;;;2.75;1.00;;;;;22.64;47.80;101354.78;5020938;28;45508;-84
2022/06/10 04:53:08;;;;;;;;;2.00;1.00;;;;;23.09;47.35;101338.69;5020853;28;46137;-83
2022/06/10 04:55:33;;;;;;;;;1.50;1.00;;;;;23.68;46.05;101340.47;5042221;28;45626;-83
2022/06/10 04:57:59;;;;;;;;;3.50;3.00;;;;;24.05;44.77;101327.34;5022972;28;45669;-83
2022/06/10 05:00:29;;;;;;;;;2.00;2.00;;;;;24.59;44.37;101330.09;5035947;28;45582;-82
2022/06/10 05:02:54;;;;;;;;;2.00;2.00;;;;;25.04;42.97;101334.28;5021245;28;46244;-81
2022/06/10 05:05:21;;;;;;;;;2.00;2.00;;;;;25.59;42.15;101333.16;5024495;28;45587;-82
2022/06/10 05:07:46;;;;;;;;;2.00;2.00;;;;;25.91;41.26;101324.53;5015026;28;45399;-83
2022/06/10 05:10:13;;;;;;;;;3.25;2.50;;;;;26.23;40.17;101334.88;5027994;28;45657;-82
2022/06/10 05:12:38;;;;;;;;;2.00;2.00;;;;;26.68;40.13;101340.53;5019089;28;45537;-82
2022/06/10 05:15:04;;;;;;;;;2.75;1.75;;;;;27.15;38.54;101327.00;5020241;28;45440;-82
2022/06/10 05:17:29;;;;;;;;;3.50;2.00;;;;;27.47;37.70;101331.75;5024408;28;45408;-83
2022/06/10 05:19:54;;;;;;;;;3.00;3.00;;;;;27.84;37.02;101324.19;5033802;28;45601;-81
2022/06/10 05:22:20;;;;;;;;;1.00;1.00;;;;;28.18;37.00;101326.91;5039813;28;45408;-82
2022/06/10 05:24:45;;;;;;;;;0.25;0.25;;;;;28.64;36.65;101335.81;5024450;28;45412;-82
2022/06/10 05:27:10;;;;;;;;;1.50;1.00;;;;;29.14;35.34;101329.72;5021479;28;45520;-83
2022/06/10 05:29:36;;;;;;;;;3.00;1.00;;;;;29.52;34.00;101328.22;5018967;28;45618;-82
2022/06/10 05:32:02;;;;;;;;;2.00;1.00;;;;;29.82;34.66;101329.25;5017578;28;46188;-82
2022/06/10 05:34:46;;;;;;;;;1.00;1.00;;;;;30.27;33.64;101328.75;5016176;28;45375;-83
2022/06/10 05:37:12;;;;;;;;;2.00;1.00;;;;;30.76;32.52;101327.94;5030388;28;45474;-82
2022/06/10 05:39:38;;;;;;;;;1.00;1.00;;;;;30.87;32.14;101332.38;5041444;28;45222;-84
2022/06/10 05:42:06;;;;;;;;;1.00;1.00;;;;;30.83;32.06;101335.41;5050810;28;45492;-83
2022/06/10 05:44:34;;;;;;;;;2.50;2.00;;;;;31.08;31.74;101326.78;5020449;28;45598;-83
2022/06/10 05:47:03;;;;;;;;;2.00;1.50;;;;;31.40;31.05;101325.56;5018216;28;45490;-83
2022/06/10 05:49:29;;;;;;;;;1.00;1.00;;;;;31.87;31.16;101334.59;5034904;28;45554;-84
2022/06/10 05:51:55;;;;;;;;;3.00;2.00;;;;;32.02;30.28;101328.59;5026232;28;45466;-84
2022/06/10 05:54:23;;;;;;;;;1.25;1.00;;;;;32.29;29.79;101333.19;5025527;28;45376;-83
2022/06/10 05:56:49;;;;;;;;;1.25;0.75;;;;;32.50;29.60;101332.03;5037081;28;45393;-84
2022/06/10 05:59:15;;;;;;;;;1.00;1.00;;;;;32.97;29.76;101353.69;5025901;28;45576;-82
2022/06/10 06:01:40;;;;;;;;;1.00;1.00;;;;;32.95;28.85;101328.34;5027858;28;45494;-82
2022/06/10 06:04:06;;;;;;;;;1.00;1.00;;;;;33.32;28.09;101362.84;5007896;28;45382;-83
2022/06/10 06:06:32;;;;;;;;;1.00;1.00;;;;;33.36;28.64;101350.56;5014785;28;45397;-84
2022/06/10 06:08:57;;;;;;;;;1.00;1.00;;;;;33.61;28.14;101358.91;5012223;28;45448;-82
2022/06/10 06:11:22;;;;;;;;;0.00;0.00;;;;;33.90;27.72;101369.53;5017033;28;45406;-82
2022/06/10 06:13:48;;;;;;;;;0.00;0.00;;;;;34.14;27.59;101341.34;5016829;28;45354;-83
2022/06/10 06:16:16;;;;;;;;;1.00;1.00;;;;;34.38;27.05;101369.88;5010485;28;45527;-81
2022/06/10 06:18:41;;;;;;;;;0.50;0.50;;;;;34.56;27.38;101358.78;5023307;28;45613;-81
2022/06/10 06:21:07;;;;;;;;;2.00;0.00;;;;;34.98;26.36;101370.63;5010859;28;45532;-81
2022/06/10 06:23:33;;;;;;;;;0.75;0.00;;;;;35.12;25.68;101369.94;5036105;28;45571;-84
2022/06/10 06:25:59;;;;;;;;;3.00;0.00;;;;;35.20;26.88;101364.44;5013173;28;45475;-76
2022/06/10 06:28:26;;;;;;;;;1.50;0.00;;;;;35.54;25.63;101374.34;5012617;28;45415;-82
2022/06/10 06:30:52;;;;;;;;;0.00;0.00;;;;;35.65;25.97;101372.25;5025725;28;46193;-82
2022/06/10 06:33:17;;;;;;;;;0.25;0.25;;;;;35.77;25.45;101365.38;5015760;28;45605;-81
2022/06/10 06:35:49;;;;;;;;;0.00;0.00;;;;;35.93;25.50;101370.78;5012988;28;45587;-83
2022/06/10 06:38:15;;;;;;;;;1.00;1.00;;;;;35.99;25.45;101374.72;5015079;28;45373;-81
2022/06/10 06:40:42;;;;;;;;;1.00;1.00;;;;;36.13;24.47;101370.34;5018770;28;45483;-81
2022/06/10 06:43:09;;;;;;;;;0.00;0.00;;;;;36.25;24.66;101373.56;5017820;28;45513;-80
2022/06/10 06:45:34;;;;;;;;;0.00;0.00;;;;;36.31;24.12;101377.53;5011828;28;45549;-81
2022/06/10 06:48:01;;;;;;;;;1.00;1.00;;;;;36.37;24.96;101374.88;5017825;28;45500;-80
2022/06/10 06:50:29;;;;;;;;;0.75;0.00;;;;;36.42;24.16;101374.34;5029110;28;46650;-82
2022/06/10 06:52:54;;;;;;;;;2.25;1.00;;;;;36.64;24.55;101375.41;5026606;28;45502;-81
2022/06/10 06:55:20;;;;;;;;;0.00;0.00;;;;;36.79;24.53;101362.56;5014376;28;45658;-80
2022/06/10 06:57:46;;;;;;;;;0.00;0.00;;;;;36.72;23.68;101368.97;5015990;28;45794;-83
2022/06/10 07:00:14;;;;;;;;;1.00;1.00;;;;;36.48;24.24;101370.00;5028095;28;46281;-83
2022/06/10 07:02:39;;;;;;;;;0.25;0.25;;;;;36.67;24.52;101360.41;5016367;28;45411;-82
2022/06/10 07:05:06;;;;;;;;;0.00;0.00;;;;;36.68;23.69;101356.63;5019787;28;45574;-82
2022/06/10 07:07:32;;;;;;;;;1.00;0.00;;;;;36.25;23.93;101363.41;5027815;28;45661;-83
2022/06/10 07:09:57;;;;;;;;;2.00;1.00;;;;;36.20;24.70;101375.97;5013360;28;46440;-83
2022/06/10 07:12:23;;;;;;;;;1.50;1.00;;;;;36.34;24.41;101371.66;5015131;28;45444;-83
2022/06/10 07:14:48;;;;;;;;;1.00;0.75;;;;;36.45;24.20;101373.97;5033340;28;45592;-83
2022/06/10 07:17:15;;;;;;;;;0.00;0.00;;;;;36.40;23.84;101366.28;5013900;28;45591;-81
2022/06/10 07:19:40;;;;;;;;;0.00;0.00;;;;;36.36;23.52;101375.91;5033625;28;45417;-82
2022/06/10 07:22:06;;;;;;;;;1.00;1.00;;;;;36.11;24.78;101372.44;5023096;28;45434;-82
2022/06/10 07:24:31;;;;;;;;;0.00;0.00;;;;;36.21;24.50;101364.78;5027758;28;45308;-83
2022/06/10 07:27:00;;;;;;;;;0.25;0.00;;;;;35.96;24.60;101368.75;5023231;28;45343;-83
2022/06/10 07:29:27;;;;;;;;;1.75;0.75;;;;;36.06;24.95;101366.59;5015506;28;46298;-82
2022/06/10 07:31:52;;;;;;;;;0.00;0.00;;;;;36.02;25.22;101371.63;5027527;28;45518;-83
2022/06/10 07:34:18;;;;;;;;;0.00;0.00;;;;;35.78;24.31;101378.09;5027910;28;45398;-82
2022/06/10 07:36:43;;;;;;;;;0.50;0.50;;;;;35.72;25.19;101378.75;5011896;28;45506;-81
2022/06/10 07:39:08;;;;;;;;;1.00;1.00;;;;;35.65;25.26;101378.63;5021915;28;45478;-83
2022/06/10 07:44:20;;;;;;;;;0.00;0.00;;;;;35.99;24.40;101395.88;5028225;28;45430;-82
2022/06/10 07:46:50;;;;;;;;;1.00;1.00;;;;;35.10;25.37;101395.84;5017775;28;45597;-83
2022/06/10 07:49:16;;;;;;;;;0.00;0.00;;;;;34.68;25.81;101398.56;5022242;28;45494;-80
2022/06/10 07:51:41;;;;;;;;;2.00;1.00;;;;;34.37;26.76;101395.59;5023097;28;45548;-81
2022/06/10 07:54:07;;;;;;;;;0.00;0.00;;;;;34.22;27.22;101386.25;5029361;28;45482;-83
2022/06/10 07:56:32;;;;;;;;;1.50;0.00;;;;;33.95;26.19;101377.25;5018151;28;45570;-81
2022/06/10 07:58:59;;;;;;;;;0.50;0.50;;;;;34.12;26.26;101395.47;5007960;28;45406;-83
2022/06/10 08:01:27;;;;;;;;;1.00;0.00;;;;;34.07;27.31;101388.78;5021585;28;45368;-84
2022/06/10 08:03:52;;;;;;;;;0.00;0.00;;;;;34.69;27.06;101386.53;5036308;28;45332;-83
2022/06/10 08:06:20;;;;;;;;;0.00;0.00;;;;;34.42;25.84;101387.72;5024967;28;45562;-82
2022/06/10 08:08:46;;;;;;;;;0.00;0.00;;;;;34.27;26.73;101386.63;5025757;28;45569;-84
2022/06/10 08:11:11;;;;;;;;;0.00;0.00;;;;;34.48;25.63;101375.19;5019037;28;45525;-83
2022/06/10 08:13:36;;;;;;;;;0.00;0.00;;;;;34.57;26.82;101387.06;5025752;28;45506;-81
2022/06/10 08:16:03;;;;;;;;;0.75;0.00;;;;;34.72;25.10;101376.28;5032104;28;45362;-82
2022/06/10 08:18:31;;;;;;;;;1.00;0.00;;;;;34.93;25.63;101382.13;5030171;28;46006;-82
2022/06/10 08:23:42;;;;;;;;;0.00;0.00;;;;;35.87;25.02;101371.50;5032276;28;45497;-81
2022/06/10 08:26:08;;;;;;;;;0.75;0.00;;;;;35.99;23.90;101377.47;5023854;28;45611;-83
2022/06/10 08:28:37;;;;;;;;;0.25;0.25;;;;;35.92;23.89;101371.81;5037665;28;46536;-81
2022/06/10 08:31:03;;;;;;;;;0.00;0.00;;;;;36.23;23.59;101390.25;5029747;28;45553;-82
2022/06/10 08:33:28;;;;;;;;;0.00;0.00;;;;;36.40;23.13;101365.44;5033077;28;45533;-77
2022/06/10 08:35:54;;;;;;;;;0.00;0.00;;;;;36.54;23.08;101367.38;5023122;28;45811;-76
2022/06/10 08:38:20;;;;;;;;;0.25;0.00;;;;;36.09;23.60;101369.88;5034377;28;52884;-79
2022/06/10 08:41:07;;;;;;;;;0.00;0.00;;;;;35.73;23.33;101369.50;5024568;28;45409;-78
2022/06/10 08:43:38;;;;;;;;;1.00;0.00;;;;;35.20;23.53;101369.94;5037288;28;45387;-80
2022/06/10 08:46:10;;;;;;;;;2.00;0.00;;;;;35.34;24.03;101370.28;5021184;28;45430;-80
2022/06/10 08:49:01;;;;;;;;;1.25;0.00;;;;;35.63;23.46;101374.34;5017282;28;45558;-80
2022/06/10 08:52:05;;;;;;;;;0.00;0.00;;;;;35.89;23.88;101363.09;5023215;28;45450;-80
2022/06/10 08:54:41;;;;;;;;;3.00;0.00;;;;;36.09;23.57;101358.88;5022617;28;45435;-80
2022/06/10 08:57:35;;;;;;;;;0.00;0.00;;;;;35.90;23.96;101365.66;5013465;28;45590;-79
2022/06/10 09:00:02;;;;;;;;;0.00;0.00;;;;;35.82;24.30;101371.19;5004632;28;46146;-80
2022/06/10 09:02:38;;;;;;;;;0.00;0.00;;;;;35.77;23.72;101370.84;5015593;28;45621;-79
2022/06/10 09:05:21;;;;;;;;;0.00;0.00;;;;;35.49;25.02;101373.19;5026509;28;45485;-80
2022/06/10 09:08:11;;;;;;;;;0.00;0.00;;;;;35.40;24.21;101370.44;5013494;28;45466;-80
2022/06/10 09:10:54;;;;;;;;;0.50;0.00;;;;;35.04;24.76;101369.94;5020129;28;45478;-79
2022/06/10 09:13:39;;;;;;;;;4.00;0.75;;;;;34.89;25.63;101375.25;5023485;28;45453;-79
2022/06/10 09:16:27;;;;;;;;;1.50;0.00;;;;;35.31;24.72;101355.00;5023670;28;45414;-79
2022/06/10 09:19:26;;;;;;;;;0.00;0.00;;;;;35.57;24.28;101362.16;5019438;28;45467;-79
2022/06/10 09:22:01;;;;;;;;;1.00;1.00;;;;;36.01;24.14;101358.06;5015842;28;45948;-80
2022/06/10 09:24:32;;;;;;;;;0.00;0.00;;;;;36.23;23.39;101357.25;5022248;28;45459;-81
2022/06/10 09:27:17;;;;;;;;;0.00;0.00;;;;;36.43;22.98;101359.56;5022952;28;45445;-80
2022/06/10 09:29:43;;;;;;;;;0.00;0.00;;;;;36.56;22.66;101365.28;5017465;28;45392;-79
2022/06/10 09:32:27;;;;;;;;;0.50;0.00;;;;;36.02;22.22;101357.88;5023624;28;46083;-80
2022/06/10 09:34:58;;;;;;;;;0.00;0.00;;;;;35.74;22.86;101368.44;5025091;28;45432;-80
2022/06/10 09:37:42;;;;;;;;;1.00;0.00;;;;;35.46;22.75;101368.88;5012437;28;45618;-80
2022/06/10 09:40:36;;;;;;;;;1.00;0.00;;;;;35.58;23.53;101367.47;5021216;28;45462;-80
2022/06/10 09:43:26;;;;;;;;;0.00;0.00;;;;;35.63;23.99;101377.06;5031161;28;47389;-79
2022/06/10 09:46:17;;;;;;;;;1.00;0.00;;;;;35.98;22.83;101374.91;5022682;28;45603;-79
2022/06/10 09:49:01;;;;;;;;;1.00;0.00;;;;;36.07;23.89;101371.06;5021653;28;45426;-80
2022/06/10 09:51:45;;;;;;;;;0.00;0.00;;;;;36.19;23.08;101366.03;5014063;28;45536;-80
2022/06/10 09:54:32;;;;;;;;;0.00;0.00;;;;;36.25;22.79;101370.81;5015267;28;46237;-80
2022/06/10 09:57:11;;;;;;;;;0.00;0.00;;;;;36.30;23.69;101370.31;5006714;28;45384;-80
2022/06/10 09:59:44;;;;;;;;;0.00;0.00;;;;;36.16;23.04;101369.16;5024464;28;45452;-80
2022/06/10 10:02:21;;;;;;;;;1.75;0.00;;;;;35.82;23.78;101381.31;5021351;28;45477;-80
2022/06/10 10:04:59;;;;;;;;;0.25;0.00;;;;;35.78;23.75;101377.25;5016632;28;46041;-79
2022/06/10 10:07:37;;;;;;;;;0.00;0.00;;;;;35.60;24.30;101381.03;5014946;28;45533;-81
2022/06/10 10:10:23;;;;;;;;;0.00;0.00;;;;;35.63;23.73;101375.19;5020886;28;45363;-81
2022/06/10 10:13:29;;;;;;;;;0.00;0.00;;;;;35.47;24.25;101377.97;5017602;28;45654;-80
2022/06/10 10:16:08;;;;;;;;;0.00;0.00;;;;;34.95;24.75;101373.72;5007242;28;47128;-79
2022/06/10 10:18:46;;;;;;;;;0.00;0.00;;;;;34.73;25.40;101378.00;5022762;28;45510;-80
2022/06/10 10:21:17;;;;;;;;;0.00;0.00;;;;;34.92;25.50;101372.16;5016605;28;45490;-80
2022/06/10 10:23:50;;;;;;;;;0.00;0.00;;;;;34.92;25.49;101385.06;5019401;28;45510;-80
2022/06/10 10:26:24;;;;;;;;;0.00;0.00;;;;;34.54;25.87;101388.25;5016801;28;46205;-80
2022/06/10 10:28:58;;;;;;;;;0.00;0.00;;;;;34.15;25.69;101366.88;5015151;28;45518;-80
2022/06/10 10:31:29;;;;;;;;;1.00;1.00;;;;;34.04;25.83;101373.50;5017845;28;45569;-81
2022/06/10 10:33:55;;;;;;;;;0.25;0.00;;;;;33.43;26.54;101375.41;5019201;28;45435;-82
2022/06/10 10:36:28;;;;;;;;;0.00;0.00;;;;;33.36;26.87;101379.81;5018829;28;46108;-80
2022/06/10 10:38:55;;;;;;;;;0.25;0.25;;;;;33.02;27.64;101377.84;5033149;28;45452;-82
2022/06/10 10:41:26;;;;;;;;;1.00;1.00;;;;;32.65;28.68;101381.59;5040744;28;45247;-80
2022/06/10 10:43:58;;;;;;;;;0.00;0.00;;;;;32.41;28.73;101372.97;5036647;28;45497;-81
2022/06/10 10:46:29;;;;;;;;;1.50;0.50;;;;;32.62;29.24;101371.81;5030578;28;45545;-81
2022/06/10 10:48:57;;;;;;;;;0.00;0.00;;;;;32.86;28.51;101375.84;5035713;28;45588;-80
2022/06/10 10:51:31;;;;;;;;;0.00;0.00;;;;;32.47;28.73;101387.06;5016466;28;45550;-80
2022/06/10 10:54:06;;;;;;;;;0.00;0.00;;;;;32.42;28.48;101376.56;5012223;28;45360;-82
2022/06/10 10:56:37;;;;;;;;;0.25;0.25;;;;;32.33;29.15;101361.94;5026373;28;46242;-82
2022/06/10 10:59:03;;;;;;;;;0.00;0.00;;;;;32.26;29.46;101371.78;5011357;28;45433;-81
2022/06/10 11:01:47;;;;;;;;;2.75;0.25;;;;;32.17;29.53;101372.69;5034300;28;45508;-82
2022/06/10 11:04:24;;;;;;;;;1.00;1.00;;;;;32.06;30.14;101371.84;5014709;28;45383;-83
2022/06/10 11:07:02;;;;;;;;;2.00;1.00;;;;;31.86;29.90;101375.72;5014379;28;45416;-82
2022/06/10 11:09:28;;;;;;;;;1.00;1.00;;;;;31.75;29.84;101373.16;5032542;28;45382;-82
2022/06/10 11:11:56;;;;;;;;;0.25;0.25;;;;;31.93;29.68;101371.38;5030883;28;45394;-81
2022/06/10 11:14:32;;;;;;;;;0.00;0.00;;;;;32.39;29.58;101376.88;5020774;28;45382;-82
2022/06/10 11:17:11;;;;;;;;;0.00;0.00;;;;;32.45;29.08;101372.66;5025938;28;45512;-82
2022/06/10 11:19:37;;;;;;;;;0.00;0.00;;;;;32.49;29.40;101372.19;5023678;28;45385;-80
2022/06/10 11:22:02;;;;;;;;;0.00;0.00;;;;;32.56;29.86;101361.50;5022996;28;45367;-83
2022/06/10 11:24:32;;;;;;;;;0.00;0.00;;;;;32.40;29.73;101376.72;5021449;28;45364;-81
2022/06/10 11:27:01;;;;;;;;;0.00;0.00;;;;;32.70;28.51;101374.66;5022103;28;45532;-82
2022/06/10 11:29:28;;;;;;;;;0.00;0.00;;;;;33.04;29.19;101375.78;5029175;28;45436;-82
2022/06/10 11:32:01;;;;;;;;;0.00;0.00;;;;;33.34;27.71;101370.91;5028640;28;45672;-81
2022/06/10 11:34:43;;;;;;;;;0.00;0.00;;;;;33.31;27.83;101369.34;5022609;28;45575;-81
2022/06/10 11:37:26;;;;;;;;;0.00;0.00;;;;;33.36;28.48;101367.00;5020134;28;45344;-82
2022/06/10 11:40:01;;;;;;;;;0.00;0.00;;;;;33.84;27.73;101372.06;5024421;28;45346;-81
2022/06/10 11:42:32;;;;;;;;;0.25;0.00;;;;;33.29;27.78;101344.00;5036857;28;45511;-81
2022/06/10 11:45:26;;;;;;;;;1.75;0.00;;;;;33.08;28.36;101360.78;5013649;28;45612;-81
2022/06/10 11:47:58;;;;;;;;;0.25;0.25;;;;;33.30;27.84;101359.44;5020398;28;46207;-83
2022/06/10 11:50:35;;;;;;;;;0.00;0.00;;;;;33.28;27.93;101353.22;5012918;28;45546;-82
2022/06/10 11:53:10;;;;;;;;;0.00;0.00;;;;;33.21;28.16;101352.19;5012369;28;45372;-82
2022/06/10 11:55:39;;;;;;;;;2.00;2.00;;;;;32.95;27.92;101355.72;5024146;28;45536;-79
2022/06/10 12:01:13;;;;;;;;;0.25;0.25;;;;;32.31;29.18;101355.78;5031306;28;45497;-81